sensor_id;sensor_type;location;lat;lon;timestamp;P1;durP1;ratioP1;P2;durP2;ratioP2
63975;SDS011;50167;47.958;21.780;2022-08-19T00:00:29;13.98;;;8.68;;
63975;SDS011;50167;47.958;21.780;2022-08-19T00:02:55;10.77;;;8.10;;
63975;SDS011;50167;47.958;21.780;2022-08-19T00:05:22;9.13;;;7.70;;
63975;SDS011;50167;47.958;21.780;2022-08-19T00:07:49;14.65;;;8.73;;
63975;SDS011;50167;47.958;21.780;2022-08-19T00:10:16;13.23;;;8.23;;
63975;SDS011;50167;47.958;21.780;2022-08-19T00:12:43;11.80;;;8.45;;
63975;SDS011;50167;47.958;21.780;2022-08-19T00:15:12;8.88;;;8.08;;
63975;SDS011;50167;47.958;21.780;2022-08-19T00:17:42;12.75;;;9.58;;
63975;SDS011;50167;47.958;21.780;2022-08-19T00:20:11;11.65;;;8.50;;
63975;SDS011;50167;47.958;21.780;2022-08-19T00:22:42;14.10;;;8.70;;
63975;SDS011;50167;47.958;21.780;2022-08-19T00:25:11;10.93;;;7.90;;
63975;SDS011;50167;47.958;21.780;2022-08-19T00:27:38;9.87;;;8.67;;
63975;SDS011;50167;47.958;21.780;2022-08-19T00:30:05;12.40;;;9.10;;
63975;SDS011;50167;47.958;21.780;2022-08-19T00:32:33;11.90;;;8.80;;
63975;SDS011;50167;47.958;21.780;2022-08-19T00:34:59;16.13;;;8.87;;
63975;SDS011;50167;47.958;21.780;2022-08-19T00:37:26;12.77;;;8.73;;
63975;SDS011;50167;47.958;21.780;2022-08-19T00:39:54;10.30;;;7.80;;
63975;SDS011;50167;47.958;21.780;2022-08-19T00:42:30;10.23;;;8.37;;
63975;SDS011;50167;47.958;21.780;2022-08-19T00:44:57;9.43;;;7.80;;
63975;SDS011;50167;47.958;21.780;2022-08-19T00:47:23;12.70;;;7.73;;
63975;SDS011;50167;47.958;21.780;2022-08-19T00:49:51;17.42;;;9.50;;
63975;SDS011;50167;47.958;21.780;2022-08-19T00:52:22;11.47;;;9.23;;
63975;SDS011;50167;47.958;21.780;2022-08-19T00:54:54;10.87;;;8.87;;
63975;SDS011;50167;47.958;21.780;2022-08-19T00:57:25;14.33;;;8.77;;
63975;SDS011;50167;47.958;21.780;2022-08-19T00:59:58;9.63;;;8.27;;
63975;SDS011;50167;47.958;21.780;2022-08-19T01:02:26;10.00;;;9.00;;
63975;SDS011;50167;47.958;21.780;2022-08-19T01:04:55;12.73;;;8.47;;
63975;SDS011;50167;47.958;21.780;2022-08-19T01:07:22;11.30;;;8.53;;
63975;SDS011;50167;47.958;21.780;2022-08-19T01:09:48;10.40;;;9.00;;
63975;SDS011;50167;47.958;21.780;2022-08-19T01:12:14;11.07;;;9.40;;
63975;SDS011;50167;47.958;21.780;2022-08-19T01:14:42;13.10;;;9.27;;
63975;SDS011;50167;47.958;21.780;2022-08-19T01:17:09;15.73;;;10.07;;
63975;SDS011;50167;47.958;21.780;2022-08-19T01:19:37;10.93;;;8.10;;
63975;SDS011;50167;47.958;21.780;2022-08-19T01:24:58;13.50;;;8.53;;
63975;SDS011;50167;47.958;21.780;2022-08-19T01:27:24;15.47;;;10.90;;
63975;SDS011;50167;47.958;21.780;2022-08-19T01:29:50;10.37;;;9.27;;
63975;SDS011;50167;47.958;21.780;2022-08-19T01:32:17;13.97;;;9.87;;
63975;SDS011;50167;47.958;21.780;2022-08-19T01:34:45;13.07;;;9.80;;
63975;SDS011;50167;47.958;21.780;2022-08-19T01:37:12;11.03;;;9.93;;
63975;SDS011;50167;47.958;21.780;2022-08-19T01:39:40;9.63;;;8.40;;
63975;SDS011;50167;47.958;21.780;2022-08-19T01:42:07;11.47;;;9.00;;
63975;SDS011;50167;47.958;21.780;2022-08-19T01:44:35;12.97;;;9.50;;
63975;SDS011;50167;47.958;21.780;2022-08-19T01:47:08;15.27;;;9.33;;
63975;SDS011;50167;47.958;21.780;2022-08-19T01:49:35;16.33;;;9.67;;
63975;SDS011;50167;47.958;21.780;2022-08-19T01:52:03;10.93;;;9.67;;
63975;SDS011;50167;47.958;21.780;2022-08-19T01:54:30;11.93;;;10.73;;
63975;SDS011;50167;47.958;21.780;2022-08-19T01:56:59;10.53;;;8.97;;
63975;SDS011;50167;47.958;21.780;2022-08-19T01:59:28;12.70;;;9.50;;
63975;SDS011;50167;47.958;21.780;2022-08-19T02:01:57;10.80;;;9.70;;
63975;SDS011;50167;47.958;21.780;2022-08-19T02:04:23;10.33;;;8.93;;
63975;SDS011;50167;47.958;21.780;2022-08-19T02:06:50;19.37;;;9.80;;
63975;SDS011;50167;47.958;21.780;2022-08-19T02:09:17;13.77;;;8.97;;
63975;SDS011;50167;47.958;21.780;2022-08-19T02:11:43;12.23;;;9.90;;
63975;SDS011;50167;47.958;21.780;2022-08-19T02:14:09;14.50;;;9.73;;
63975;SDS011;50167;47.958;21.780;2022-08-19T02:16:36;12.90;;;10.63;;
63975;SDS011;50167;47.958;21.780;2022-08-19T02:19:03;13.23;;;9.77;;
63975;SDS011;50167;47.958;21.780;2022-08-19T02:21:30;12.77;;;10.27;;
63975;SDS011;50167;47.958;21.780;2022-08-19T02:23:57;14.30;;;10.10;;
63975;SDS011;50167;47.958;21.780;2022-08-19T02:26:23;12.30;;;10.90;;
63975;SDS011;50167;47.958;21.780;2022-08-19T02:28:52;11.07;;;9.97;;
63975;SDS011;50167;47.958;21.780;2022-08-19T02:31:20;13.73;;;10.70;;
63975;SDS011;50167;47.958;21.780;2022-08-19T02:33:49;12.80;;;10.90;;
63975;SDS011;50167;47.958;21.780;2022-08-19T02:36:16;12.50;;;10.33;;
63975;SDS011;50167;47.958;21.780;2022-08-19T02:38:42;16.77;;;12.10;;
63975;SDS011;50167;47.958;21.780;2022-08-19T02:41:17;11.90;;;9.57;;
63975;SDS011;50167;47.958;21.780;2022-08-19T02:43:46;10.23;;;9.13;;
63975;SDS011;50167;47.958;21.780;2022-08-19T02:46:18;11.83;;;9.40;;
63975;SDS011;50167;47.958;21.780;2022-08-19T02:48:51;11.73;;;10.53;;
63975;SDS011;50167;47.958;21.780;2022-08-19T02:51:22;13.73;;;11.33;;
63975;SDS011;50167;47.958;21.780;2022-08-19T02:53:58;11.78;;;10.40;;
63975;SDS011;50167;47.958;21.780;2022-08-19T02:56:25;13.00;;;11.33;;
63975;SDS011;50167;47.958;21.780;2022-08-19T02:58:55;16.50;;;10.20;;
63975;SDS011;50167;47.958;21.780;2022-08-19T03:01:24;12.05;;;10.03;;
63975;SDS011;50167;47.958;21.780;2022-08-19T03:03:53;12.43;;;10.20;;
63975;SDS011;50167;47.958;21.780;2022-08-19T03:06:21;16.07;;;10.03;;
63975;SDS011;50167;47.958;21.780;2022-08-19T03:08:48;12.83;;;11.37;;
63975;SDS011;50167;47.958;21.780;2022-08-19T03:11:22;17.80;;;11.53;;
63975;SDS011;50167;47.958;21.780;2022-08-19T03:13:52;13.83;;;10.77;;
63975;SDS011;50167;47.958;21.780;2022-08-19T03:16:24;16.77;;;11.10;;
63975;SDS011;50167;47.958;21.780;2022-08-19T03:18:53;27.60;;;11.57;;
63975;SDS011;50167;47.958;21.780;2022-08-19T03:21:24;13.73;;;10.93;;
63975;SDS011;50167;47.958;21.780;2022-08-19T03:23:55;14.18;;;10.80;;
63975;SDS011;50167;47.958;21.780;2022-08-19T03:26:24;18.33;;;10.63;;
63975;SDS011;50167;47.958;21.780;2022-08-19T03:28:50;15.33;;;11.27;;
63975;SDS011;50167;47.958;21.780;2022-08-19T03:31:18;12.50;;;11.10;;
63975;SDS011;50167;47.958;21.780;2022-08-19T03:33:49;17.17;;;12.00;;
63975;SDS011;50167;47.958;21.780;2022-08-19T03:36:23;14.73;;;11.77;;
63975;SDS011;50167;47.958;21.780;2022-08-19T03:38:57;12.33;;;10.17;;
63975;SDS011;50167;47.958;21.780;2022-08-19T03:43:52;22.53;;;10.63;;
63975;SDS011;50167;47.958;21.780;2022-08-19T03:46:21;13.73;;;10.47;;
63975;SDS011;50167;47.958;21.780;2022-08-19T03:48:53;17.27;;;10.90;;
63975;SDS011;50167;47.958;21.780;2022-08-19T03:51:26;21.47;;;13.27;;
63975;SDS011;50167;47.958;21.780;2022-08-19T03:53:56;13.97;;;12.17;;
63975;SDS011;50167;47.958;21.780;2022-08-19T03:56:26;15.75;;;12.03;;
63975;SDS011;50167;47.958;21.780;2022-08-19T03:58:53;13.27;;;11.77;;
63975;SDS011;50167;47.958;21.780;2022-08-19T04:01:22;15.87;;;11.80;;
63975;SDS011;50167;47.958;21.780;2022-08-19T04:03:52;24.25;;;11.43;;
63975;SDS011;50167;47.958;21.780;2022-08-19T04:06:20;12.07;;;10.80;;
63975;SDS011;50167;47.958;21.780;2022-08-19T04:08:56;16.73;;;10.60;;
63975;SDS011;50167;47.958;21.780;2022-08-19T04:11:25;13.50;;;11.80;;
63975;SDS011;50167;47.958;21.780;2022-08-19T04:13:54;15.05;;;11.85;;
63975;SDS011;50167;47.958;21.780;2022-08-19T04:16:21;14.97;;;12.60;;
63975;SDS011;50167;47.958;21.780;2022-08-19T04:18:50;13.83;;;11.80;;
63975;SDS011;50167;47.958;21.780;2022-08-19T04:21:17;16.93;;;11.33;;
63975;SDS011;50167;47.958;21.780;2022-08-19T04:23:48;14.20;;;11.50;;
63975;SDS011;50167;47.958;21.780;2022-08-19T04:26:14;12.13;;;10.00;;
63975;SDS011;50167;47.958;21.780;2022-08-19T04:28:50;16.07;;;11.63;;
63975;SDS011;50167;47.958;21.780;2022-08-19T04:31:22;14.53;;;10.93;;
63975;SDS011;50167;47.958;21.780;2022-08-19T04:33:50;16.23;;;12.40;;
63975;SDS011;50167;47.958;21.780;2022-08-19T04:36:23;15.57;;;12.17;;
63975;SDS011;50167;47.958;21.780;2022-08-19T04:38:55;17.00;;;12.17;;
63975;SDS011;50167;47.958;21.780;2022-08-19T04:41:23;22.00;;;12.93;;
63975;SDS011;50167;47.958;21.780;2022-08-19T04:44:09;14.63;;;12.17;;
63975;SDS011;50167;47.958;21.780;2022-08-19T04:46:36;14.73;;;11.30;;
63975;SDS011;50167;47.958;21.780;2022-08-19T04:49:03;20.07;;;12.17;;
63975;SDS011;50167;47.958;21.780;2022-08-19T04:51:31;18.03;;;11.87;;
63975;SDS011;50167;47.958;21.780;2022-08-19T04:53:59;15.47;;;12.37;;
63975;SDS011;50167;47.958;21.780;2022-08-19T04:56:27;21.17;;;13.40;;
63975;SDS011;50167;47.958;21.780;2022-08-19T04:58:55;19.53;;;13.90;;
63975;SDS011;50167;47.958;21.780;2022-08-19T05:01:23;21.52;;;12.85;;
63975;SDS011;50167;47.958;21.780;2022-08-19T05:03:55;17.42;;;12.85;;
63975;SDS011;50167;47.958;21.780;2022-08-19T05:06:23;32.00;;;12.28;;
63975;SDS011;50167;47.958;21.780;2022-08-19T05:08:50;25.70;;;11.57;;
63975;SDS011;50167;47.958;21.780;2022-08-19T05:11:28;24.20;;;13.95;;
63975;SDS011;50167;47.958;21.780;2022-08-19T05:13:54;21.82;;;13.32;;
63975;SDS011;50167;47.958;21.780;2022-08-19T05:16:21;21.40;;;13.58;;
63975;SDS011;50167;47.958;21.780;2022-08-19T05:18:48;23.55;;;13.53;;
63975;SDS011;50167;47.958;21.780;2022-08-19T05:21:33;22.30;;;13.38;;
63975;SDS011;50167;47.958;21.780;2022-08-19T05:24:20;17.57;;;13.10;;
63975;SDS011;50167;47.958;21.780;2022-08-19T05:26:49;18.20;;;12.68;;
63975;SDS011;50167;47.958;21.780;2022-08-19T05:29:18;13.18;;;11.80;;
63975;SDS011;50167;47.958;21.780;2022-08-19T05:31:47;13.60;;;11.93;;
63975;SDS011;50167;47.958;21.780;2022-08-19T05:34:20;13.95;;;12.35;;
63975;SDS011;50167;47.958;21.780;2022-08-19T05:36:53;13.58;;;12.25;;
63975;SDS011;50167;47.958;21.780;2022-08-19T05:39:26;16.50;;;11.50;;
63975;SDS011;50167;47.958;21.780;2022-08-19T05:42:01;16.90;;;9.83;;
63975;SDS011;50167;47.958;21.780;2022-08-19T05:44:27;19.67;;;10.78;;
63975;SDS011;50167;47.958;21.780;2022-08-19T05:49:24;18.82;;;11.65;;
63975;SDS011;50167;47.958;21.780;2022-08-19T05:51:52;14.73;;;10.93;;
63975;SDS011;50167;47.958;21.780;2022-08-19T05:54:20;17.23;;;11.80;;
63975;SDS011;50167;47.958;21.780;2022-08-19T05:56:48;24.12;;;11.57;;
63975;SDS011;50167;47.958;21.780;2022-08-19T05:59:17;12.18;;;10.88;;
63975;SDS011;50167;47.958;21.780;2022-08-19T06:01:46;18.27;;;11.78;;
63975;SDS011;50167;47.958;21.780;2022-08-19T06:04:19;15.23;;;11.12;;
63975;SDS011;50167;47.958;21.780;2022-08-19T06:06:47;15.35;;;11.05;;
63975;SDS011;50167;47.958;21.780;2022-08-19T06:09:16;12.65;;;10.30;;
63975;SDS011;50167;47.958;21.780;2022-08-19T06:11:44;13.83;;;10.48;;
63975;SDS011;50167;47.958;21.780;2022-08-19T06:14:18;13.10;;;11.15;;
63975;SDS011;50167;47.958;21.780;2022-08-19T06:16:44;18.80;;;10.85;;
63975;SDS011;50167;47.958;21.780;2022-08-19T06:19:15;13.28;;;9.93;;
63975;SDS011;50167;47.958;21.780;2022-08-19T06:21:44;13.58;;;9.95;;
63975;SDS011;50167;47.958;21.780;2022-08-19T06:24:14;13.62;;;11.18;;
63975;SDS011;50167;47.958;21.780;2022-08-19T06:26:45;13.65;;;10.55;;
63975;SDS011;50167;47.958;21.780;2022-08-19T06:29:14;11.33;;;9.88;;
63975;SDS011;50167;47.958;21.780;2022-08-19T06:31:43;15.32;;;9.38;;
63975;SDS011;50167;47.958;21.780;2022-08-19T06:34:15;20.23;;;9.80;;
63975;SDS011;50167;47.958;21.780;2022-08-19T06:36:43;25.05;;;11.38;;
63975;SDS011;50167;47.958;21.780;2022-08-19T06:39:13;12.25;;;10.43;;
63975;SDS011;50167;47.958;21.780;2022-08-19T06:41:44;26.02;;;9.43;;
63975;SDS011;50167;47.958;21.780;2022-08-19T06:44:13;18.55;;;8.68;;
63975;SDS011;50167;47.958;21.780;2022-08-19T06:46:40;15.50;;;9.10;;
63975;SDS011;50167;47.958;21.780;2022-08-19T06:49:07;16.00;;;9.53;;
63975;SDS011;50167;47.958;21.780;2022-08-19T06:51:38;15.00;;;8.58;;
63975;SDS011;50167;47.958;21.780;2022-08-19T06:54:07;13.70;;;9.53;;
63975;SDS011;50167;47.958;21.780;2022-08-19T06:56:33;15.93;;;8.60;;
63975;SDS011;50167;47.958;21.780;2022-08-19T06:59:01;15.45;;;9.85;;
63975;SDS011;50167;47.958;21.780;2022-08-19T07:01:37;11.55;;;9.15;;
63975;SDS011;50167;47.958;21.780;2022-08-19T07:04:07;13.75;;;9.05;;
63975;SDS011;50167;47.958;21.780;2022-08-19T07:06:35;14.18;;;9.23;;
63975;SDS011;50167;47.958;21.780;2022-08-19T07:09:06;13.08;;;8.78;;
63975;SDS011;50167;47.958;21.780;2022-08-19T07:11:31;15.18;;;8.80;;
63975;SDS011;50167;47.958;21.780;2022-08-19T07:13:58;17.42;;;9.03;;
63975;SDS011;50167;47.958;21.780;2022-08-19T07:16:25;12.78;;;8.93;;
63975;SDS011;50167;47.958;21.780;2022-08-19T07:18:53;15.53;;;8.68;;
63975;SDS011;50167;47.958;21.780;2022-08-19T07:21:22;13.40;;;7.28;;
63975;SDS011;50167;47.958;21.780;2022-08-19T07:23:53;15.28;;;8.00;;
63975;SDS011;50167;47.958;21.780;2022-08-19T07:26:28;13.80;;;7.78;;
63975;SDS011;50167;47.958;21.780;2022-08-19T07:28:57;19.92;;;8.08;;
63975;SDS011;50167;47.958;21.780;2022-08-19T07:31:26;12.65;;;7.58;;
63975;SDS011;50167;47.958;21.780;2022-08-19T07:33:54;10.72;;;7.95;;
63975;SDS011;50167;47.958;21.780;2022-08-19T07:36:27;9.65;;;7.55;;
63975;SDS011;50167;47.958;21.780;2022-08-19T07:38:58;11.73;;;6.47;;
63975;SDS011;50167;47.958;21.780;2022-08-19T07:41:28;13.75;;;7.72;;
63975;SDS011;50167;47.958;21.780;2022-08-19T07:43:55;11.97;;;7.05;;
63975;SDS011;50167;47.958;21.780;2022-08-19T07:46:22;7.83;;;7.10;;
63975;SDS011;50167;47.958;21.780;2022-08-19T07:48:49;21.57;;;7.62;;
63975;SDS011;50167;47.958;21.780;2022-08-19T07:51:18;19.17;;;7.72;;
63975;SDS011;50167;47.958;21.780;2022-08-19T07:53:46;11.00;;;6.83;;
63975;SDS011;50167;47.958;21.780;2022-08-19T07:56:16;11.40;;;7.70;;
63975;SDS011;50167;47.958;21.780;2022-08-19T07:58:46;21.52;;;6.85;;
63975;SDS011;50167;47.958;21.780;2022-08-19T08:03:44;15.60;;;7.47;;
63975;SDS011;50167;47.958;21.780;2022-08-19T08:06:31;7.58;;;6.37;;
63975;SDS011;50167;47.958;21.780;2022-08-19T08:09:17;9.95;;;6.42;;
63975;SDS011;50167;47.958;21.780;2022-08-19T08:11:49;13.05;;;6.15;;
63975;SDS011;50167;47.958;21.780;2022-08-19T08:14:29;8.75;;;6.00;;
63975;SDS011;50167;47.958;21.780;2022-08-19T08:17:01;13.68;;;6.50;;
63975;SDS011;50167;47.958;21.780;2022-08-19T08:21:57;14.45;;;5.53;;
63975;SDS011;50167;47.958;21.780;2022-08-19T08:24:26;10.80;;;6.35;;
63975;SDS011;50167;47.958;21.780;2022-08-19T08:26:57;11.45;;;5.95;;
63975;SDS011;50167;47.958;21.780;2022-08-19T08:29:28;7.33;;;5.60;;
63975;SDS011;50167;47.958;21.780;2022-08-19T08:31:56;9.55;;;5.95;;
63975;SDS011;50167;47.958;21.780;2022-08-19T08:34:23;12.68;;;6.00;;
63975;SDS011;50167;47.958;21.780;2022-08-19T08:36:49;12.90;;;5.92;;
63975;SDS011;50167;47.958;21.780;2022-08-19T08:39:19;10.38;;;5.87;;
63975;SDS011;50167;47.958;21.780;2022-08-19T08:41:56;12.25;;;6.22;;
63975;SDS011;50167;47.958;21.780;2022-08-19T08:47:30;13.62;;;6.45;;
63975;SDS011;50167;47.958;21.780;2022-08-19T08:50:09;8.58;;;5.53;;
63975;SDS011;50167;47.958;21.780;2022-08-19T08:52:42;11.38;;;5.80;;
63975;SDS011;50167;47.958;21.780;2022-08-19T08:55:19;11.83;;;6.10;;
63975;SDS011;50167;47.958;21.780;2022-08-19T09:00:40;10.38;;;6.05;;
63975;SDS011;50167;47.958;21.780;2022-08-19T09:03:06;11.93;;;6.15;;
63975;SDS011;50167;47.958;21.780;2022-08-19T09:08:49;6.80;;;5.62;;
63975;SDS011;50167;47.958;21.780;2022-08-19T09:11:25;9.98;;;5.58;;
63975;SDS011;50167;47.958;21.780;2022-08-19T09:14:39;14.68;;;6.10;;
63975;SDS011;50167;47.958;21.780;2022-08-19T09:17:15;10.38;;;5.90;;
63975;SDS011;50167;47.958;21.780;2022-08-19T09:19:53;7.75;;;5.60;;
63975;SDS011;50167;47.958;21.780;2022-08-19T09:22:19;9.83;;;5.53;;
63975;SDS011;50167;47.958;21.780;2022-08-19T09:24:48;6.80;;;5.87;;
63975;SDS011;50167;47.958;21.780;2022-08-19T09:27:18;9.53;;;5.65;;
63975;SDS011;50167;47.958;21.780;2022-08-19T09:29:46;15.03;;;5.05;;
63975;SDS011;50167;47.958;21.780;2022-08-19T09:32:14;10.50;;;5.87;;
63975;SDS011;50167;47.958;21.780;2022-08-19T09:34:42;8.50;;;5.17;;
63975;SDS011;50167;47.958;21.780;2022-08-19T09:37:09;12.53;;;5.42;;
63975;SDS011;50167;47.958;21.780;2022-08-19T09:39:36;14.60;;;5.70;;
63975;SDS011;50167;47.958;21.780;2022-08-19T09:42:06;6.97;;;4.83;;
63975;SDS011;50167;47.958;21.780;2022-08-19T09:44:35;7.17;;;4.75;;
63975;SDS011;50167;47.958;21.780;2022-08-19T09:47:01;7.47;;;5.67;;
63975;SDS011;50167;47.958;21.780;2022-08-19T09:49:28;6.83;;;4.70;;
63975;SDS011;50167;47.958;21.780;2022-08-19T09:51:54;8.70;;;5.00;;
63975;SDS011;50167;47.958;21.780;2022-08-19T09:54:21;6.85;;;4.83;;
63975;SDS011;50167;47.958;21.780;2022-08-19T09:56:48;6.08;;;5.10;;
63975;SDS011;50167;47.958;21.780;2022-08-19T09:59:15;9.40;;;5.17;;
63975;SDS011;50167;47.958;21.780;2022-08-19T10:01:41;7.67;;;4.37;;
63975;SDS011;50167;47.958;21.780;2022-08-19T10:04:08;8.83;;;5.40;;
63975;SDS011;50167;47.958;21.780;2022-08-19T10:06:35;5.37;;;4.87;;
63975;SDS011;50167;47.958;21.780;2022-08-19T10:09:05;9.53;;;4.80;;
63975;SDS011;50167;47.958;21.780;2022-08-19T10:11:35;10.00;;;5.58;;
63975;SDS011;50167;47.958;21.780;2022-08-19T10:14:04;8.70;;;4.95;;
63975;SDS011;50167;47.958;21.780;2022-08-19T10:16:31;17.02;;;5.85;;
63975;SDS011;50167;47.958;21.780;2022-08-19T10:18:58;8.83;;;4.87;;
63975;SDS011;50167;47.958;21.780;2022-08-19T10:21:29;11.05;;;4.85;;
63975;SDS011;50167;47.958;21.780;2022-08-19T10:23:59;4.97;;;4.47;;
63975;SDS011;50167;47.958;21.780;2022-08-19T10:26:31;10.58;;;4.97;;
63975;SDS011;50167;47.958;21.780;2022-08-19T10:29:02;11.88;;;5.22;;
63975;SDS011;50167;47.958;21.780;2022-08-19T10:31:31;8.05;;;4.55;;
63975;SDS011;50167;47.958;21.780;2022-08-19T10:33:59;7.05;;;4.35;;
63975;SDS011;50167;47.958;21.780;2022-08-19T10:36:32;5.08;;;4.45;;
63975;SDS011;50167;47.958;21.780;2022-08-19T10:38:59;10.85;;;4.78;;
63975;SDS011;50167;47.958;21.780;2022-08-19T10:41:29;5.37;;;4.80;;
63975;SDS011;50167;47.958;21.780;2022-08-19T10:44:01;6.90;;;4.62;;
63975;SDS011;50167;47.958;21.780;2022-08-19T10:46:30;5.45;;;4.60;;
63975;SDS011;50167;47.958;21.780;2022-08-19T10:48:59;9.48;;;4.33;;
63975;SDS011;50167;47.958;21.780;2022-08-19T10:51:26;5.40;;;4.62;;
63975;SDS011;50167;47.958;21.780;2022-08-19T10:54:11;5.87;;;4.55;;
63975;SDS011;50167;47.958;21.780;2022-08-19T10:56:38;6.55;;;4.20;;
63975;SDS011;50167;47.958;21.780;2022-08-19T10:59:17;9.58;;;4.83;;
63975;SDS011;50167;47.958;21.780;2022-08-19T11:01:52;4.80;;;3.98;;
63975;SDS011;50167;47.958;21.780;2022-08-19T11:04:26;4.85;;;4.35;;
63975;SDS011;50167;47.958;21.780;2022-08-19T11:06:52;10.93;;;4.83;;
63975;SDS011;50167;47.958;21.780;2022-08-19T11:09:21;7.10;;;4.10;;
63975;SDS011;50167;47.958;21.780;2022-08-19T11:11:53;5.37;;;4.65;;
63975;SDS011;50167;47.958;21.780;2022-08-19T11:14:20;6.80;;;4.15;;
63975;SDS011;50167;47.958;21.780;2022-08-19T11:19:15;6.10;;;4.60;;
63975;SDS011;50167;47.958;21.780;2022-08-19T11:21:45;10.63;;;5.65;;
63975;SDS011;50167;47.958;21.780;2022-08-19T11:24:15;7.12;;;4.55;;
63975;SDS011;50167;47.958;21.780;2022-08-19T11:26:48;11.33;;;4.92;;
63975;SDS011;50167;47.958;21.780;2022-08-19T11:29:18;9.48;;;4.53;;
63975;SDS011;50167;47.958;21.780;2022-08-19T11:31:47;9.30;;;4.37;;
63975;SDS011;50167;47.958;21.780;2022-08-19T11:34:16;8.00;;;4.60;;
63975;SDS011;50167;47.958;21.780;2022-08-19T11:36:46;6.03;;;4.35;;
63975;SDS011;50167;47.958;21.780;2022-08-19T11:39:14;10.40;;;4.92;;
63975;SDS011;50167;47.958;21.780;2022-08-19T11:41:44;12.68;;;4.70;;
63975;SDS011;50167;47.958;21.780;2022-08-19T11:44:10;8.23;;;4.53;;
63975;SDS011;50167;47.958;21.780;2022-08-19T11:46:39;13.62;;;4.83;;
63975;SDS011;50167;47.958;21.780;2022-08-19T11:49:10;5.47;;;4.17;;
63975;SDS011;50167;47.958;21.780;2022-08-19T11:51:36;7.08;;;5.05;;
63975;SDS011;50167;47.958;21.780;2022-08-19T11:54:04;9.35;;;4.40;;
63975;SDS011;50167;47.958;21.780;2022-08-19T11:56:31;7.37;;;4.33;;
63975;SDS011;50167;47.958;21.780;2022-08-19T11:58:58;6.25;;;5.00;;
63975;SDS011;50167;47.958;21.780;2022-08-19T12:01:25;8.00;;;4.78;;
63975;SDS011;50167;47.958;21.780;2022-08-19T12:03:53;6.65;;;4.50;;
63975;SDS011;50167;47.958;21.780;2022-08-19T12:06:24;6.72;;;4.70;;
63975;SDS011;50167;47.958;21.780;2022-08-19T12:08:57;5.00;;;4.15;;
63975;SDS011;50167;47.958;21.780;2022-08-19T12:11:27;13.65;;;5.50;;
63975;SDS011;50167;47.958;21.780;2022-08-19T12:13:54;7.55;;;5.05;;
63975;SDS011;50167;47.958;21.780;2022-08-19T12:16:22;10.35;;;4.92;;
63975;SDS011;50167;47.958;21.780;2022-08-19T12:18:51;6.53;;;4.35;;
63975;SDS011;50167;47.958;21.780;2022-08-19T12:21:24;5.90;;;3.55;;
63975;SDS011;50167;47.958;21.780;2022-08-19T12:23:55;4.85;;;3.85;;
63975;SDS011;50167;47.958;21.780;2022-08-19T12:26:24;8.75;;;4.55;;
63975;SDS011;50167;47.958;21.780;2022-08-19T12:28:52;19.37;;;5.28;;
63975;SDS011;50167;47.958;21.780;2022-08-19T12:31:19;6.22;;;4.30;;
63975;SDS011;50167;47.958;21.780;2022-08-19T12:33:46;7.67;;;4.37;;
63975;SDS011;50167;47.958;21.780;2022-08-19T12:36:13;8.68;;;4.37;;
63975;SDS011;50167;47.958;21.780;2022-08-19T12:38:41;6.42;;;4.62;;
63975;SDS011;50167;47.958;21.780;2022-08-19T12:41:10;8.15;;;4.42;;
63975;SDS011;50167;47.958;21.780;2022-08-19T12:43:38;4.92;;;4.42;;
63975;SDS011;50167;47.958;21.780;2022-08-19T12:46:05;6.20;;;5.00;;
63975;SDS011;50167;47.958;21.780;2022-08-19T12:48:32;6.03;;;4.47;;
63975;SDS011;50167;47.958;21.780;2022-08-19T12:50:59;8.05;;;4.40;;
63975;SDS011;50167;47.958;21.780;2022-08-19T12:53:28;9.95;;;4.62;;
63975;SDS011;50167;47.958;21.780;2022-08-19T12:55:55;4.90;;;4.08;;
63975;SDS011;50167;47.958;21.780;2022-08-19T12:58:25;8.25;;;4.72;;
63975;SDS011;50167;47.958;21.780;2022-08-19T13:00:52;7.78;;;4.17;;
63975;SDS011;50167;47.958;21.780;2022-08-19T13:03:19;11.05;;;4.70;;
63975;SDS011;50167;47.958;21.780;2022-08-19T13:05:45;7.17;;;3.90;;
63975;SDS011;50167;47.958;21.780;2022-08-19T13:08:11;5.58;;;3.70;;
63975;SDS011;50167;47.958;21.780;2022-08-19T13:10:37;7.22;;;4.40;;
63975;SDS011;50167;47.958;21.780;2022-08-19T13:13:04;5.83;;;3.70;;
63975;SDS011;50167;47.958;21.780;2022-08-19T13:15:35;8.23;;;4.25;;
63975;SDS011;50167;47.958;21.780;2022-08-19T13:18:05;5.37;;;3.98;;
63975;SDS011;50167;47.958;21.780;2022-08-19T13:20:34;6.95;;;3.37;;
63975;SDS011;50167;47.958;21.780;2022-08-19T13:23:01;5.70;;;3.92;;
63975;SDS011;50167;47.958;21.780;2022-08-19T13:25:29;5.95;;;3.75;;
63975;SDS011;50167;47.958;21.780;2022-08-19T13:27:55;6.90;;;4.30;;
63975;SDS011;50167;47.958;21.780;2022-08-19T13:30:22;5.33;;;3.65;;
63975;SDS011;50167;47.958;21.780;2022-08-19T13:33:07;4.78;;;3.40;;
63975;SDS011;50167;47.958;21.780;2022-08-19T13:35:43;6.03;;;3.50;;
63975;SDS011;50167;47.958;21.780;2022-08-19T13:38:17;4.47;;;3.37;;
63975;SDS011;50167;47.958;21.780;2022-08-19T13:40:46;6.65;;;3.58;;
63975;SDS011;50167;47.958;21.780;2022-08-19T13:43:15;11.28;;;4.28;;
63975;SDS011;50167;47.958;21.780;2022-08-19T13:45:43;12.03;;;3.77;;
63975;SDS011;50167;47.958;21.780;2022-08-19T13:48:09;5.83;;;3.70;;
63975;SDS011;50167;47.958;21.780;2022-08-19T13:50:40;8.45;;;3.62;;
63975;SDS011;50167;47.958;21.780;2022-08-19T13:53:10;10.78;;;3.37;;
63975;SDS011;50167;47.958;21.780;2022-08-19T13:55:37;5.17;;;3.58;;
63975;SDS011;50167;47.958;21.780;2022-08-19T13:58:09;4.55;;;3.17;;
63975;SDS011;50167;47.958;21.780;2022-08-19T14:00:38;12.00;;;4.08;;
63975;SDS011;50167;47.958;21.780;2022-08-19T14:03:08;7.67;;;3.62;;
63975;SDS011;50167;47.958;21.780;2022-08-19T14:05:35;6.03;;;3.87;;
63975;SDS011;50167;47.958;21.780;2022-08-19T14:08:02;4.58;;;3.17;;
63975;SDS011;50167;47.958;21.780;2022-08-19T14:10:29;3.80;;;3.40;;
63975;SDS011;50167;47.958;21.780;2022-08-19T14:12:57;22.80;;;5.35;;
63975;SDS011;50167;47.958;21.780;2022-08-19T14:15:26;14.38;;;3.25;;
63975;SDS011;50167;47.958;21.780;2022-08-19T14:17:53;3.95;;;3.27;;
63975;SDS011;50167;47.958;21.780;2022-08-19T14:20:19;4.67;;;3.60;;
63975;SDS011;50167;47.958;21.780;2022-08-19T14:25:15;9.20;;;3.30;;
63975;SDS011;50167;47.958;21.780;2022-08-19T14:27:45;8.08;;;3.37;;
63975;SDS011;50167;47.958;21.780;2022-08-19T14:30:14;9.18;;;3.40;;
63975;SDS011;50167;47.958;21.780;2022-08-19T14:32:44;4.22;;;3.50;;
63975;SDS011;50167;47.958;21.780;2022-08-19T14:35:10;4.72;;;3.60;;
63975;SDS011;50167;47.958;21.780;2022-08-19T14:37:40;5.83;;;3.40;;
63975;SDS011;50167;47.958;21.780;2022-08-19T14:40:09;7.20;;;3.37;;
63975;SDS011;50167;47.958;21.780;2022-08-19T14:42:38;6.75;;;3.83;;
63975;SDS011;50167;47.958;21.780;2022-08-19T14:45:05;6.33;;;3.50;;
63975;SDS011;50167;47.958;21.780;2022-08-19T14:47:33;4.25;;;3.00;;
63975;SDS011;50167;47.958;21.780;2022-08-19T14:49:59;4.62;;;3.08;;
63975;SDS011;50167;47.958;21.780;2022-08-19T14:52:25;5.83;;;3.17;;
63975;SDS011;50167;47.958;21.780;2022-08-19T14:54:52;6.12;;;3.52;;
63975;SDS011;50167;47.958;21.780;2022-08-19T14:57:18;7.05;;;3.87;;
63975;SDS011;50167;47.958;21.780;2022-08-19T14:59:45;6.87;;;4.30;;
63975;SDS011;50167;47.958;21.780;2022-08-19T15:02:11;10.85;;;3.62;;